sensor_id;sensor_type;location;lat;lon;timestamp;noise_LAeq;noise_LA_min;noise_LA_max;noise_LA01;noise_LA95
69618;Laerm;57652;51.436;5.980;2022-09-12T00:00:09;48.60;44.94;51.88;;
69618;Laerm;57652;51.436;5.980;2022-09-12T00:00:20;48.78;45.43;51.59;;
69618;Laerm;57652;51.436;5.980;2022-09-12T00:00:32;48.80;45.84;51.56;;
69618;Laerm;57652;51.436;5.980;2022-09-12T00:00:42;48.57;45.18;50.84;;
69618;Laerm;57652;51.436;5.980;2022-09-12T00:01:01;48.50;44.37;51.03;;
69618;Laerm;57652;51.436;5.980;2022-09-12T00:01:16;48.10;44.47;51.27;;
69618;Laerm;57652;51.436;5.980;2022-09-12T00:01:26;48.43;43.78;51.30;;
69618;Laerm;57652;51.436;5.980;2022-09-12T00:01:37;48.65;44.05;51.61;;
69618;Laerm;57652;51.436;5.980;2022-09-12T00:01:47;48.65;43.98;51.01;;
69618;Laerm;57652;51.436;5.980;2022-09-12T00:01:57;48.50;44.56;50.68;;
69618;Laerm;57652;51.436;5.980;2022-09-12T00:02:07;49.38;46.74;52.09;;
69618;Laerm;57652;51.436;5.980;2022-09-12T00:02:18;47.58;44.42;52.43;;
69618;Laerm;57652;51.436;5.980;2022-09-12T00:02:28;49.91;45.34;53.17;;
69618;Laerm;57652;51.436;5.980;2022-09-12T00:02:38;49.38;44.87;52.41;;
69618;Laerm;57652;51.436;5.980;2022-09-12T00:02:52;48.60;43.72;52.19;;
69618;Laerm;57652;51.436;5.980;2022-09-12T00:03:03;49.06;46.02;52.31;;
69618;Laerm;57652;51.436;5.980;2022-09-12T00:03:13;48.46;44.32;51.26;;
69618;Laerm;57652;51.436;5.980;2022-09-12T00:03:23;48.92;44.43;51.68;;
69618;Laerm;57652;51.436;5.980;2022-09-12T00:03:33;49.41;44.83;51.81;;
69618;Laerm;57652;51.436;5.980;2022-09-12T00:03:44;48.17;44.67;52.65;;
69618;Laerm;57652;51.436;5.980;2022-09-12T00:03:54;50.18;46.31;52.66;;
69618;Laerm;57652;51.436;5.980;2022-09-12T00:04:05;49.99;44.54;52.65;;
69618;Laerm;57652;51.436;5.980;2022-09-12T00:04:16;49.31;44.92;52.31;;
69618;Laerm;57652;51.436;5.980;2022-09-12T00:04:26;49.29;43.94;52.17;;
69618;Laerm;57652;51.436;5.980;2022-09-12T00:04:37;48.68;44.07;52.21;;
69618;Laerm;57652;51.436;5.980;2022-09-12T00:04:47;48.61;44.28;50.65;;
69618;Laerm;57652;51.436;5.980;2022-09-12T00:04:57;48.79;44.82;51.34;;
69618;Laerm;57652;51.436;5.980;2022-09-12T00:05:09;48.76;44.65;51.02;;
69618;Laerm;57652;51.436;5.980;2022-09-12T00:05:20;48.14;44.01;50.25;;
69618;Laerm;57652;51.436;5.980;2022-09-12T00:05:30;47.97;44.53;50.23;;
69618;Laerm;57652;51.436;5.980;2022-09-12T00:05:45;48.69;45.00;51.48;;
69618;Laerm;57652;51.436;5.980;2022-09-12T00:05:56;48.26;44.40;51.52;;
69618;Laerm;57652;51.436;5.980;2022-09-12T00:06:10;48.20;44.29;50.22;;
69618;Laerm;57652;51.436;5.980;2022-09-12T00:06:22;48.17;43.62;50.54;;
69618;Laerm;57652;51.436;5.980;2022-09-12T00:06:33;47.15;44.58;50.36;;
69618;Laerm;57652;51.436;5.980;2022-09-12T00:06:44;46.88;44.58;48.98;;
69618;Laerm;57652;51.436;5.980;2022-09-12T00:06:55;47.03;44.40;49.52;;
69618;Laerm;57652;51.436;5.980;2022-09-12T00:07:05;47.57;43.99;50.69;;
69618;Laerm;57652;51.436;5.980;2022-09-12T00:07:15;45.35;43.45;49.25;;
69618;Laerm;57652;51.436;5.980;2022-09-12T00:07:25;47.60;44.96;50.00;;
69618;Laerm;57652;51.436;5.980;2022-09-12T00:07:36;47.96;45.61;51.25;;
69618;Laerm;57652;51.436;5.980;2022-09-12T00:07:46;47.63;44.35;49.72;;
69618;Laerm;57652;51.436;5.980;2022-09-12T00:07:57;48.14;45.14;50.88;;
69618;Laerm;57652;51.436;5.980;2022-09-12T00:08:07;48.07;44.95;50.79;;
69618;Laerm;57652;51.436;5.980;2022-09-12T00:08:17;47.88;45.47;50.54;;
69618;Laerm;57652;51.436;5.980;2022-09-12T00:08:28;48.17;45.28;51.26;;
69618;Laerm;57652;51.436;5.980;2022-09-12T00:08:38;47.81;45.41;51.27;;
69618;Laerm;57652;51.436;5.980;2022-09-12T00:08:49;48.58;44.89;51.12;;
69618;Laerm;57652;51.436;5.980;2022-09-12T00:09:00;48.39;45.03;50.82;;
69618;Laerm;57652;51.436;5.980;2022-09-12T00:09:12;46.84;43.74;49.18;;
69618;Laerm;57652;51.436;5.980;2022-09-12T00:09:22;47.21;45.05;48.85;;
69618;Laerm;57652;51.436;5.980;2022-09-12T00:09:32;47.12;44.47;49.02;;
69618;Laerm;57652;51.436;5.980;2022-09-12T00:09:43;47.07;44.38;49.25;;
69618;Laerm;57652;51.436;5.980;2022-09-12T00:09:53;47.21;45.43;49.88;;
69618;Laerm;57652;51.436;5.980;2022-09-12T00:10:03;47.73;45.18;49.76;;
69618;Laerm;57652;51.436;5.980;2022-09-12T00:10:14;48.14;45.03;50.74;;
69618;Laerm;57652;51.436;5.980;2022-09-12T00:10:24;47.74;45.57;50.00;;
69618;Laerm;57652;51.436;5.980;2022-09-12T00:10:38;47.45;43.84;49.43;;
69618;Laerm;57652;51.436;5.980;2022-09-12T00:10:49;47.35;43.77;50.28;;
69618;Laerm;57652;51.436;5.980;2022-09-12T00:11:02;46.40;43.27;49.44;;
69618;Laerm;57652;51.436;5.980;2022-09-12T00:11:16;46.47;43.70;50.15;;
69618;Laerm;57652;51.436;5.980;2022-09-12T00:11:26;46.46;44.16;52.70;;
69618;Laerm;57652;51.436;5.980;2022-09-12T00:11:37;45.77;43.26;49.08;;
69618;Laerm;57652;51.436;5.980;2022-09-12T00:11:48;47.26;44.51;50.15;;
69618;Laerm;57652;51.436;5.980;2022-09-12T00:11:58;47.27;45.04;49.18;;
69618;Laerm;57652;51.436;5.980;2022-09-12T00:12:08;46.98;44.92;49.37;;
69618;Laerm;57652;51.436;5.980;2022-09-12T00:12:19;46.95;44.18;49.54;;
69618;Laerm;57652;51.436;5.980;2022-09-12T00:12:29;46.86;42.92;49.16;;
69618;Laerm;57652;51.436;5.980;2022-09-12T00:12:39;47.13;44.99;49.19;;
69618;Laerm;57652;51.436;5.980;2022-09-12T00:12:50;47.26;43.79;49.46;;
69618;Laerm;57652;51.436;5.980;2022-09-12T00:13:00;47.54;43.49;49.84;;
69618;Laerm;57652;51.436;5.980;2022-09-12T00:13:11;47.16;43.93;49.79;;
69618;Laerm;57652;51.436;5.980;2022-09-12T00:13:21;46.02;42.68;49.14;;
69618;Laerm;57652;51.436;5.980;2022-09-12T00:13:31;47.19;43.07;50.74;;
69618;Laerm;57652;51.436;5.980;2022-09-12T00:13:42;47.09;43.45;50.12;;
69618;Laerm;57652;51.436;5.980;2022-09-12T00:13:56;45.87;42.67;49.38;;
69618;Laerm;57652;51.436;5.980;2022-09-12T00:14:07;44.66;42.51;46.53;;
69618;Laerm;57652;51.436;5.980;2022-09-12T00:14:17;45.23;42.07;47.71;;
69618;Laerm;57652;51.436;5.980;2022-09-12T00:14:28;45.79;42.91;48.41;;
69618;Laerm;57652;51.436;5.980;2022-09-12T00:14:38;47.45;44.12;50.63;;
69618;Laerm;57652;51.436;5.980;2022-09-12T00:14:48;47.36;45.20;49.36;;
69618;Laerm;57652;51.436;5.980;2022-09-12T00:14:59;47.33;44.77;49.45;;
69618;Laerm;57652;51.436;5.980;2022-09-12T00:15:09;47.42;44.97;51.26;;
69618;Laerm;57652;51.436;5.980;2022-09-12T00:15:19;47.25;44.79;50.77;;
69618;Laerm;57652;51.436;5.980;2022-09-12T00:15:30;46.99;44.75;49.94;;
69618;Laerm;57652;51.436;5.980;2022-09-12T00:15:41;46.64;43.49;48.41;;
69618;Laerm;57652;51.436;5.980;2022-09-12T00:15:51;47.20;44.20;49.69;;
69618;Laerm;57652;51.436;5.980;2022-09-12T00:16:02;46.54;44.00;49.57;;
69618;Laerm;57652;51.436;5.980;2022-09-12T00:16:15;46.70;44.72;48.89;;
69618;Laerm;57652;51.436;5.980;2022-09-12T00:16:27;46.71;44.26;48.94;;
69618;Laerm;57652;51.436;5.980;2022-09-12T00:16:38;46.05;43.57;48.62;;
69618;Laerm;57652;51.436;5.980;2022-09-12T00:16:48;46.45;43.76;49.68;;
69618;Laerm;57652;51.436;5.980;2022-09-12T00:16:59;46.68;43.62;49.56;;
69618;Laerm;57652;51.436;5.980;2022-09-12T00:17:09;47.16;44.72;49.90;;
69618;Laerm;57652;51.436;5.980;2022-09-12T00:17:19;47.39;44.56;51.16;;
69618;Laerm;57652;51.436;5.980;2022-09-12T00:17:31;47.15;44.23;49.33;;
69618;Laerm;57652;51.436;5.980;2022-09-12T00:17:42;47.51;43.12;50.83;;
69618;Laerm;57652;51.436;5.980;2022-09-12T00:17:53;47.55;44.67;50.80;;
69618;Laerm;57652;51.436;5.980;2022-09-12T00:18:03;46.62;43.70;49.83;;
69618;Laerm;57652;51.436;5.980;2022-09-12T00:18:14;46.45;43.78;48.63;;
69618;Laerm;57652;51.436;5.980;2022-09-12T00:18:25;46.72;43.70;49.32;;
69618;Laerm;57652;51.436;5.980;2022-09-12T00:18:35;46.98;44.22;49.15;;
69618;Laerm;57652;51.436;5.980;2022-09-12T00:18:45;45.83;42.67;48.75;;
69618;Laerm;57652;51.436;5.980;2022-09-12T00:18:56;46.25;43.89;49.09;;
69618;Laerm;57652;51.436;5.980;2022-09-12T00:19:07;46.12;43.67;48.18;;
69618;Laerm;57652;51.436;5.980;2022-09-12T00:19:17;46.43;43.80;48.55;;
69618;Laerm;57652;51.436;5.980;2022-09-12T00:19:28;46.40;43.54;48.24;;
69618;Laerm;57652;51.436;5.980;2022-09-12T00:19:38;46.14;44.17;48.90;;
69618;Laerm;57652;51.436;5.980;2022-09-12T00:19:48;46.36;44.26;48.43;;
69618;Laerm;57652;51.436;5.980;2022-09-12T00:19:59;46.40;44.38;48.34;;
69618;Laerm;57652;51.436;5.980;2022-09-12T00:20:09;46.71;44.62;48.86;;
69618;Laerm;57652;51.436;5.980;2022-09-12T00:20:20;47.08;44.63;49.62;;
69618;Laerm;57652;51.436;5.980;2022-09-12T00:20:30;47.40;44.65;50.05;;
69618;Laerm;57652;51.436;5.980;2022-09-12T00:20:44;47.31;44.81;49.26;;
69618;Laerm;57652;51.436;5.980;2022-09-12T00:20:55;47.15;44.75;49.80;;
69618;Laerm;57652;51.436;5.980;2022-09-12T00:21:05;47.61;45.07;51.05;;
69618;Laerm;57652;51.436;5.980;2022-09-12T00:21:15;47.11;44.45;49.35;;
69618;Laerm;57652;51.436;5.980;2022-09-12T00:21:26;46.92;44.47;49.03;;
69618;Laerm;57652;51.436;5.980;2022-09-12T00:21:37;47.46;45.40;49.74;;
69618;Laerm;57652;51.436;5.980;2022-09-12T00:21:48;47.34;45.18;49.04;;
69618;Laerm;57652;51.436;5.980;2022-09-12T00:21:58;47.46;44.44;49.56;;
69618;Laerm;57652;51.436;5.980;2022-09-12T00:22:08;47.95;45.31;50.54;;
69618;Laerm;57652;51.436;5.980;2022-09-12T00:22:19;48.09;44.98;51.46;;
69618;Laerm;57652;51.436;5.980;2022-09-12T00:22:29;47.54;44.96;50.91;;
69618;Laerm;57652;51.436;5.980;2022-09-12T00:22:39;48.18;45.47;50.95;;
69618;Laerm;57652;51.436;5.980;2022-09-12T00:22:49;47.73;44.96;50.19;;
69618;Laerm;57652;51.436;5.980;2022-09-12T00:23:00;48.09;45.13;50.73;;
69618;Laerm;57652;51.436;5.980;2022-09-12T00:23:10;47.08;44.05;50.50;;
69618;Laerm;57652;51.436;5.980;2022-09-12T00:23:21;47.00;43.81;48.94;;
69618;Laerm;57652;51.436;5.980;2022-09-12T00:23:31;47.45;44.39;50.43;;
69618;Laerm;57652;51.436;5.980;2022-09-12T00:23:42;48.57;46.45;51.33;;
69618;Laerm;57652;51.436;5.980;2022-09-12T00:23:52;48.36;46.42;50.98;;
69618;Laerm;57652;51.436;5.980;2022-09-12T00:24:02;48.39;44.67;50.51;;
69618;Laerm;57652;51.436;5.980;2022-09-12T00:24:13;47.75;44.46;49.69;;
69618;Laerm;57652;51.436;5.980;2022-09-12T00:24:23;47.55;44.67;50.53;;
69618;Laerm;57652;51.436;5.980;2022-09-12T00:24:34;47.72;45.43;49.71;;
69618;Laerm;57652;51.436;5.980;2022-09-12T00:24:44;48.09;45.29;50.20;;
69618;Laerm;57652;51.436;5.980;2022-09-12T00:24:54;48.31;46.13;50.85;;
69618;Laerm;57652;51.436;5.980;2022-09-12T00:25:05;48.36;46.37;50.50;;
69618;Laerm;57652;51.436;5.980;2022-09-12T00:25:15;48.00;45.13;50.10;;
69618;Laerm;57652;51.436;5.980;2022-09-12T00:25:25;48.21;46.23;50.27;;
69618;Laerm;57652;51.436;5.980;2022-09-12T00:25:42;47.78;44.98;50.58;;
69618;Laerm;57652;51.436;5.980;2022-09-12T00:25:52;47.84;45.44;50.04;;
69618;Laerm;57652;51.436;5.980;2022-09-12T00:26:04;48.00;45.82;50.60;;
69618;Laerm;57652;51.436;5.980;2022-09-12T00:26:15;48.22;45.97;50.76;;
69618;Laerm;57652;51.436;5.980;2022-09-12T00:26:26;48.12;45.95;51.00;;
69618;Laerm;57652;51.436;5.980;2022-09-12T00:26:36;47.91;45.86;49.85;;
69618;Laerm;57652;51.436;5.980;2022-09-12T00:26:46;47.80;45.28;49.50;;
69618;Laerm;57652;51.436;5.980;2022-09-12T00:26:57;47.77;45.47;49.50;;
69618;Laerm;57652;51.436;5.980;2022-09-12T00:27:07;48.31;45.06;50.27;;
69618;Laerm;57652;51.436;5.980;2022-09-12T00:27:17;47.98;45.75;50.12;;
69618;Laerm;57652;51.436;5.980;2022-09-12T00:27:28;46.97;44.35;49.92;;
69618;Laerm;57652;51.436;5.980;2022-09-12T00:27:39;47.48;44.68;49.89;;
69618;Laerm;57652;51.436;5.980;2022-09-12T00:27:49;47.66;45.47;49.86;;
69618;Laerm;57652;51.436;5.980;2022-09-12T00:27:59;48.18;46.15;49.94;;
69618;Laerm;57652;51.436;5.980;2022-09-12T00:28:10;48.04;44.83;50.63;;
69618;Laerm;57652;51.436;5.980;2022-09-12T00:28:21;47.71;44.91;49.69;;
69618;Laerm;57652;51.436;5.980;2022-09-12T00:28:32;46.79;43.62;49.81;;
69618;Laerm;57652;51.436;5.980;2022-09-12T00:28:43;47.85;44.75;50.17;;
69618;Laerm;57652;51.436;5.980;2022-09-12T00:28:53;47.41;44.06;49.46;;
69618;Laerm;57652;51.436;5.980;2022-09-12T00:29:04;47.30;45.09;49.50;;
69618;Laerm;57652;51.436;5.980;2022-09-12T00:29:15;47.70;44.78;49.67;;
69618;Laerm;57652;51.436;5.980;2022-09-12T00:29:25;47.37;45.07;49.85;;
69618;Laerm;57652;51.436;5.980;2022-09-12T00:29:36;47.39;44.62;49.74;;
69618;Laerm;57652;51.436;5.980;2022-09-12T00:29:46;47.44;44.82;49.16;;
69618;Laerm;57652;51.436;5.980;2022-09-12T00:29:56;47.36;44.97;49.15;;
69618;Laerm;57652;51.436;5.980;2022-09-12T00:30:07;47.60;44.64;49.48;;
69618;Laerm;57652;51.436;5.980;2022-09-12T00:30:17;47.96;44.91;49.78;;
69618;Laerm;57652;51.436;5.980;2022-09-12T00:30:27;47.91;45.57;50.14;;
69618;Laerm;57652;51.436;5.980;2022-09-12T00:30:41;47.54;44.56;50.09;;
69618;Laerm;57652;51.436;5.980;2022-09-12T00:30:52;47.78;45.00;50.04;;
69618;Laerm;57652;51.436;5.980;2022-09-12T00:31:03;47.56;45.10;49.73;;
69618;Laerm;57652;51.436;5.980;2022-09-12T00:31:15;47.26;44.90;49.37;;
69618;Laerm;57652;51.436;5.980;2022-09-12T00:31:26;47.62;45.29;49.66;;
69618;Laerm;57652;51.436;5.980;2022-09-12T00:31:37;47.81;45.73;50.84;;
69618;Laerm;57652;51.436;5.980;2022-09-12T00:31:47;48.26;45.85;50.22;;
69618;Laerm;57652;51.436;5.980;2022-09-12T00:31:57;47.71;45.39;50.10;;
69618;Laerm;57652;51.436;5.980;2022-09-12T00:32:07;47.52;45.36;49.81;;
69618;Laerm;57652;51.436;5.980;2022-09-12T00:32:18;47.53;45.34;49.71;;
69618;Laerm;57652;51.436;5.980;2022-09-12T00:32:28;46.92;44.83;49.25;;
69618;Laerm;57652;51.436;5.980;2022-09-12T00:32:39;46.80;44.43;48.51;;
69618;Laerm;57652;51.436;5.980;2022-09-12T00:32:49;47.06;44.76;49.57;;
69618;Laerm;57652;51.436;5.980;2022-09-12T00:33:00;46.84;44.63;48.72;;
69618;Laerm;57652;51.436;5.980;2022-09-12T00:33:11;46.88;44.38;48.80;;
69618;Laerm;57652;51.436;5.980;2022-09-12T00:33:21;46.62;44.81;48.63;;
69618;Laerm;57652;51.436;5.980;2022-09-12T00:33:31;46.67;44.75;48.34;;
69618;Laerm;57652;51.436;5.980;2022-09-12T00:33:42;46.07;44.12;47.65;;
69618;Laerm;57652;51.436;5.980;2022-09-12T00:33:54;46.16;44.09;48.70;;
69618;Laerm;57652;51.436;5.980;2022-09-12T00:34:04;45.42;43.42;47.37;;
69618;Laerm;57652;51.436;5.980;2022-09-12T00:34:15;45.66;44.01;47.92;;
69618;Laerm;57652;51.436;5.980;2022-09-12T00:34:25;44.75;42.87;46.41;;
69618;Laerm;57652;51.436;5.980;2022-09-12T00:34:35;45.08;43.32;46.88;;
69618;Laerm;57652;51.436;5.980;2022-09-12T00:34:46;44.86;43.32;46.68;;
69618;Laerm;57652;51.436;5.980;2022-09-12T00:34:56;44.61;42.53;46.29;;
69618;Laerm;57652;51.436;5.980;2022-09-12T00:35:06;45.18;43.67;47.56;;
69618;Laerm;57652;51.436;5.980;2022-09-12T00:35:17;45.67;43.77;47.35;;
69618;Laerm;57652;51.436;5.980;2022-09-12T00:35:27;45.93;43.86;47.84;;
69618;Laerm;57652;51.436;5.980;2022-09-12T00:35:41;47.00;44.96;49.10;;
69618;Laerm;57652;51.436;5.980;2022-09-12T00:35:51;46.84;44.86;48.43;;
69618;Laerm;57652;51.436;5.980;2022-09-12T00:36:05;46.79;44.87;48.55;;
69618;Laerm;57652;51.436;5.980;2022-09-12T00:36:17;46.80;45.03;48.94;;
69618;Laerm;57652;51.436;5.980;2022-09-12T00:36:28;46.60;44.65;48.73;;
69618;Laerm;57652;51.436;5.980;2022-09-12T00:36:39;46.41;44.26;48.19;;
69618;Laerm;57652;51.436;5.980;2022-09-12T00:36:49;46.38;44.69;48.09;;
69618;Laerm;57652;51.436;5.980;2022-09-12T00:37:00;46.21;44.11;47.95;;
69618;Laerm;57652;51.436;5.980;2022-09-12T00:37:10;46.16;44.31;47.71;;
69618;Laerm;57652;51.436;5.980;2022-09-12T00:37:20;45.90;43.57;47.57;;
69618;Laerm;57652;51.436;5.980;2022-09-12T00:37:30;46.04;44.01;47.73;;
69618;Laerm;57652;51.436;5.980;2022-09-12T00:37:41;46.17;44.08;47.83;;
69618;Laerm;57652;51.436;5.980;2022-09-12T00:37:51;45.99;44.53;48.02;;
69618;Laerm;57652;51.436;5.980;2022-09-12T00:38:01;45.86;43.88;47.66;;
69618;Laerm;57652;51.436;5.980;2022-09-12T00:38:13;46.26;44.36;48.31;;
69618;Laerm;57652;51.436;5.980;2022-09-12T00:38:23;46.15;44.16;48.12;;
69618;Laerm;57652;51.436;5.980;2022-09-12T00:38:34;46.27;44.16;48.40;;
69618;Laerm;57652;51.436;5.980;2022-09-12T00:38:47;46.21;44.42;47.96;;
69618;Laerm;57652;51.436;5.980;2022-09-12T00:38:58;46.41;44.78;48.32;;
69618;Laerm;57652;51.436;5.980;2022-09-12T00:39:09;46.58;44.74;48.43;;
69618;Laerm;57652;51.436;5.980;2022-09-12T00:39:21;46.55;45.06;48.52;;
69618;Laerm;57652;51.436;5.980;2022-09-12T00:39:31;46.60;44.81;48.70;;
69618;Laerm;57652;51.436;5.980;2022-09-12T00:39:42;46.53;44.28;48.20;;
69618;Laerm;57652;51.436;5.980;2022-09-12T00:39:52;46.43;44.63;48.43;;
69618;Laerm;57652;51.436;5.980;2022-09-12T00:40:02;45.95;44.29;47.48;;
69618;Laerm;57652;51.436;5.980;2022-09-12T00:40:13;46.37;44.39;48.26;;
69618;Laerm;57652;51.436;5.980;2022-09-12T00:40:23;46.23;44.26;48.51;;
69618;Laerm;57652;51.436;5.980;2022-09-12T00:40:34;46.44;44.23;48.83;;
69618;Laerm;57652;51.436;5.980;2022-09-12T00:40:44;46.78;44.37;48.60;;
69618;Laerm;57652;51.436;5.980;2022-09-12T00:40:55;46.79;44.47;48.72;;
69618;Laerm;57652;51.436;5.980;2022-09-12T00:41:05;46.82;44.91;48.98;;
69618;Laerm;57652;51.436;5.980;2022-09-12T00:41:17;46.46;44.30;49.08;;
69618;Laerm;57652;51.436;5.980;2022-09-12T00:41:33;46.32;44.47;48.78;;
69618;Laerm;57652;51.436;5.980;2022-09-12T00:41:44;46.25;44.32;48.09;;
69618;Laerm;57652;51.436;5.980;2022-09-12T00:41:54;46.44;44.54;48.45;;
69618;Laerm;57652;51.436;5.980;2022-09-12T00:42:05;45.91;43.95;49.13;;
69618;Laerm;57652;51.436;5.980;2022-09-12T00:42:15;45.52;43.85;47.41;;
69618;Laerm;57652;51.436;5.980;2022-09-12T00:42:25;45.71;44.26;47.12;;
69618;Laerm;57652;51.436;5.980;2022-09-12T00:42:35;45.65;43.52;47.92;;
69618;Laerm;57652;51.436;5.980;2022-09-12T00:42:45;45.33;43.67;47.30;;
69618;Laerm;57652;51.436;5.980;2022-09-12T00:42:56;45.70;44.10;47.78;;
69618;Laerm;57652;51.436;5.980;2022-09-12T00:43:10;45.76;43.49;47.26;;
69618;Laerm;57652;51.436;5.980;2022-09-12T00:43:47;45.16;43.03;47.35;;
69618;Laerm;57652;51.436;5.980;2022-09-12T00:44:41;45.29;43.43;47.14;;
69618;Laerm;57652;51.436;5.980;2022-09-12T00:44:44;45.37;43.69;47.26;;
69618;Laerm;57652;51.436;5.980;2022-09-12T00:44:51;45.30;43.56;46.91;;
69618;Laerm;57652;51.436;5.980;2022-09-12T00:45:02;45.57;43.86;47.73;;
69618;Laerm;57652;51.436;5.980;2022-09-12T00:45:19;45.68;43.96;47.83;;
69618;Laerm;57652;51.436;5.980;2022-09-12T00:45:32;45.45;43.46;47.65;;
69618;Laerm;57652;51.436;5.980;2022-09-12T00:45:42;45.39;43.50;47.56;;
69618;Laerm;57652;51.436;5.980;2022-09-12T00:45:53;45.60;43.68;47.29;;
69618;Laerm;57652;51.436;5.980;2022-09-12T00:46:05;45.40;43.43;47.10;;
69618;Laerm;57652;51.436;5.980;2022-09-12T00:46:21;45.23;43.51;47.11;;
69618;Laerm;57652;51.436;5.980;2022-09-12T00:47:03;45.55;43.91;47.49;;
69618;Laerm;57652;51.436;5.980;2022-09-12T00:47:27;45.57;43.48;47.51;;
69618;Laerm;57652;51.436;5.980;2022-09-12T00:47:38;45.36;43.10;47.36;;
69618;Laerm;57652;51.436;5.980;2022-09-12T00:47:48;45.24;43.35;46.90;;
69618;Laerm;57652;51.436;5.980;2022-09-12T00:48:00;45.07;43.09;46.48;;
69618;Laerm;57652;51.436;5.980;2022-09-12T00:48:15;45.17;43.23;47.01;;
69618;Laerm;57652;51.436;5.980;2022-09-12T00:48:32;45.15;43.81;47.08;;
69618;Laerm;57652;51.436;5.980;2022-09-12T00:48:49;45.18;43.12;47.30;;
69618;Laerm;57652;51.436;5.980;2022-09-12T00:49:22;44.91;43.21;46.93;;
69618;Laerm;57652;51.436;5.980;2022-09-12T00:49:45;44.74;42.83;46.80;;
69618;Laerm;57652;51.436;5.980;2022-09-12T00:50:03;44.87;42.88;46.61;;
69618;Laerm;57652;51.436;5.980;2022-09-12T00:50:14;44.56;42.76;46.61;;
69618;Laerm;57652;51.436;5.980;2022-09-12T00:50:26;44.61;42.67;46.55;;
69618;Laerm;57652;51.436;5.980;2022-09-12T00:50:36;44.80;42.92;46.42;;
69618;Laerm;57652;51.436;5.980;2022-09-12T00:50:47;44.70;42.48;46.30;;
69618;Laerm;57652;51.436;5.980;2022-09-12T00:50:58;44.95;43.43;46.77;;
69618;Laerm;57652;51.436;5.980;2022-09-12T00:51:08;45.00;42.64;46.68;;
69618;Laerm;57652;51.436;5.980;2022-09-12T00:51:19;44.87;43.07;46.62;;
69618;Laerm;57652;51.436;5.980;2022-09-12T00:51:31;44.75;43.18;46.67;;
69618;Laerm;57652;51.436;5.980;2022-09-12T00:52:32;44.71;42.36;46.85;;
69618;Laerm;57652;51.436;5.980;2022-09-12T00:52:45;44.72;42.97;46.52;;
69618;Laerm;57652;51.436;5.980;2022-09-12T00:53:02;44.75;42.99;46.55;;
69618;Laerm;57652;51.436;5.980;2022-09-12T00:53:13;44.56;42.89;46.68;;
69618;Laerm;57652;51.436;5.980;2022-09-12T00:53:23;44.53;42.77;46.17;;
69618;Laerm;57652;51.436;5.980;2022-09-12T00:53:34;44.63;42.95;46.27;;
69618;Laerm;57652;51.436;5.980;2022-09-12T00:53:45;44.61;42.75;46.56;;
69618;Laerm;57652;51.436;5.980;2022-09-12T00:53:58;44.47;42.85;46.81;;
69618;Laerm;57652;51.436;5.980;2022-09-12T00:54:13;44.49;42.89;46.34;;
69618;Laerm;57652;51.436;5.980;2022-09-12T00:54:27;44.30;42.39;46.18;;
69618;Laerm;57652;51.436;5.980;2022-09-12T00:54:42;44.35;42.71;46.18;;
69618;Laerm;57652;51.436;5.980;2022-09-12T00:54:56;44.02;42.05;45.87;;
69618;Laerm;57652;51.436;5.980;2022-09-12T00:55:16;43.93;42.50;45.83;;
69618;Laerm;57652;51.436;5.980;2022-09-12T00:55:33;44.13;42.44;46.92;;
69618;Laerm;57652;51.436;5.980;2022-09-12T00:55:46;44.23;42.43;46.15;;
69618;Laerm;57652;51.436;5.980;2022-09-12T00:55:58;44.10;42.01;46.00;;
69618;Laerm;57652;51.436;5.980;2022-09-12T00:56:09;44.15;42.21;46.21;;
69618;Laerm;57652;51.436;5.980;2022-09-12T00:56:21;44.26;42.37;45.77;;
69618;Laerm;57652;51.436;5.980;2022-09-12T00:56:32;44.32;42.79;45.61;;
69618;Laerm;57652;51.436;5.980;2022-09-12T00:56:43;44.35;42.46;45.60;;
69618;Laerm;57652;51.436;5.980;2022-09-12T00:56:57;44.06;42.46;45.47;;
69618;Laerm;57652;51.436;5.980;2022-09-12T00:57:10;43.98;42.05;45.45;;
69618;Laerm;57652;51.436;5.980;2022-09-12T00:57:22;44.10;42.58;45.58;;
69618;Laerm;57652;51.436;5.980;2022-09-12T00:57:41;44.27;42.46;46.34;;
69618;Laerm;57652;51.436;5.980;2022-09-12T00:57:59;44.38;42.50;45.91;;
69618;Laerm;57652;51.436;5.980;2022-09-12T00:58:16;44.16;42.31;45.58;;
69618;Laerm;57652;51.436;5.980;2022-09-12T00:58:31;44.18;42.21;46.15;;
69618;Laerm;57652;51.436;5.980;2022-09-12T00:58:50;44.15;42.47;46.19;;
69618;Laerm;57652;51.436;5.980;2022-09-12T00:59:04;44.43;42.74;46.14;;
69618;Laerm;57652;51.436;5.980;2022-09-12T00:59:18;44.32;42.29;46.18;;
69618;Laerm;57652;51.436;5.980;2022-09-12T00:59:31;44.03;41.97;46.03;;
69618;Laerm;57652;51.436;5.980;2022-09-12T00:59:45;43.97;41.99;45.52;;
69618;Laerm;57652;51.436;5.980;2022-09-12T00:59:58;43.90;42.23;45.59;;
69618;Laerm;57652;51.436;5.980;2022-09-12T01:00:11;44.23;42.50;46.68;;
69618;Laerm;57652;51.436;5.980;2022-09-12T01:00:26;44.63;42.15;46.71;;
69618;Laerm;57652;51.436;5.980;2022-09-12T01:00:36;44.55;42.57;46.37;;
69618;Laerm;57652;51.436;5.980;2022-09-12T01:00:47;44.26;42.32;46.03;;
69618;Laerm;57652;51.436;5.980;2022-09-12T01:00:57;44.06;42.38;45.69;;
69618;Laerm;57652;51.436;5.980;2022-09-12T01:01:08;43.83;42.10;45.26;;
69618;Laerm;57652;51.436;5.980;2022-09-12T01:01:18;43.60;41.30;44.96;;
69618;Laerm;57652;51.436;5.980;2022-09-12T01:01:28;43.58;41.94;44.93;;
69618;Laerm;57652;51.436;5.980;2022-09-12T01:01:39;43.78;42.04;45.60;;
69618;Laerm;57652;51.436;5.980;2022-09-12T01:01:51;43.89;41.93;45.49;;
69618;Laerm;57652;51.436;5.980;2022-09-12T01:02:01;43.77;42.14;45.15;;
69618;Laerm;57652;51.436;5.980;2022-09-12T01:02:12;43.53;41.67;44.92;;
69618;Laerm;57652;51.436;5.980;2022-09-12T01:02:22;43.19;41.44;45.16;;
69618;Laerm;57652;51.436;5.980;2022-09-12T01:02:33;43.55;42.05;45.40;;
69618;Laerm;57652;51.436;5.980;2022-09-12T01:02:45;43.65;42.01;45.56;;
69618;Laerm;57652;51.436;5.980;2022-09-12T01:03:01;43.22;41.57;45.64;;
69618;Laerm;57652;51.436;5.980;2022-09-12T01:03:13;43.37;41.56;44.73;;
69618;Laerm;57652;51.436;5.980;2022-09-12T01:03:24;43.27;41.50;45.03;;
69618;Laerm;57652;51.436;5.980;2022-09-12T01:03:35;42.98;41.33;44.53;;
69618;Laerm;57652;51.436;5.980;2022-09-12T01:03:45;42.84;40.88;44.53;;
69618;Laerm;57652;51.436;5.980;2022-09-12T01:03:56;42.72;41.33;44.08;;
69618;Laerm;57652;51.436;5.980;2022-09-12T01:04:07;42.59;41.16;43.78;;
69618;Laerm;57652;51.436;5.980;2022-09-12T01:04:19;42.71;40.44;44.34;;
69618;Laerm;57652;51.436;5.980;2022-09-12T01:04:31;42.65;41.34;44.13;;
69618;Laerm;57652;51.436;5.980;2022-09-12T01:04:41;42.41;40.60;43.90;;
69618;Laerm;57652;51.436;5.980;2022-09-12T01:04:52;42.49;40.79;44.40;;
69618;Laerm;57652;51.436;5.980;2022-09-12T01:05:04;42.38;40.82;43.76;;
69618;Laerm;57652;51.436;5.980;2022-09-12T01:05:15;42.41;41.12;43.76;;
69618;Laerm;57652;51.436;5.980;2022-09-12T01:05:25;42.42;41.20;43.57;;
69618;Laerm;57652;51.436;5.980;2022-09-12T01:05:37;42.40;40.82;43.94;;
69618;Laerm;57652;51.436;5.980;2022-09-12T01:06:10;42.35;40.41;43.83;;
69618;Laerm;57652;51.436;5.980;2022-09-12T01:06:26;42.40;40.83;44.21;;
69618;Laerm;57652;51.436;5.980;2022-09-12T01:06:41;42.40;41.07;44.04;;
69618;Laerm;57652;51.436;5.980;2022-09-12T01:06:52;42.33;40.68;43.77;;